<?xml version="1.0" encoding="UTF-8" standalone="no" ?>
<gpx xmlns="http://www.topografix.com/GPX/1/1" xmlns:xsi="http://www.w3.org/2001/XMLSchema-instance" xsi:schemaLocation="http://www.topografix.com/GPX/1/1 http://www.topografix.com/GPX/1/1/gpx.xsd" version="1.1" creator="VisuGPX - https://www.visugpx.com">
  <metadata>
    <name>10986173-Casserousse circuit 2</name>
  </metadata>
  <trk>
    <name><![CDATA[10986173-Casserousse]]></name>
    <trkseg>
      <trkpt lat="45.13966" lon="5.88923">
        <ele>1410</ele>
        <time>2021-02-27T12:49:24Z</time>
      </trkpt>
      <trkpt lat="45.1333" lon="5.88823">
        <ele>1636</ele>
        <time>2021-02-27T12:57:56Z</time>
      </trkpt>
      <trkpt lat="45.13375" lon="5.88878">
        <ele>1627</ele>
        <time>2021-02-27T12:58:44Z</time>
      </trkpt>
      <trkpt lat="45.13469" lon="5.89535">
        <ele>1759</ele>
        <time>2021-02-27T13:05:03Z</time>
      </trkpt>
      <trkpt lat="45.13508" lon="5.89951">
        <ele>1757</ele>
        <time>2021-02-27T13:09:00Z</time>
      </trkpt>
      <trkpt lat="45.13511" lon="5.90338">
        <ele>1807</ele>
        <time>2021-02-27T13:12:38Z</time>
      </trkpt>
      <trkpt lat="45.13459" lon="5.91101">
        <ele>1984</ele>
        <time>2021-02-27T13:19:51Z</time>
      </trkpt>
      <trkpt lat="45.13368" lon="5.91436">
        <ele>2025</ele>
        <time>2021-02-27T13:23:14Z</time>
      </trkpt>
      <trkpt lat="45.13259" lon="5.91689">
        <ele>2005</ele>
        <time>2021-02-27T13:26:01Z</time>
      </trkpt>
      <trkpt lat="45.13322" lon="5.91719">
        <ele>2014</ele>
        <time>2021-02-27T13:26:55Z</time>
      </trkpt>
      <trkpt lat="45.13023" lon="5.9177">
        <ele>2006</ele>
        <time>2021-02-27T13:30:56Z</time>
      </trkpt>
      <trkpt lat="45.1261" lon="5.90712">
        <ele>2207</ele>
        <time>2021-02-27T13:42:19Z</time>
      </trkpt>
      <trkpt lat="45.12531" lon="5.90318">
        <ele>2237</ele>
        <time>2021-02-27T13:46:10Z</time>
      </trkpt>
      <trkpt lat="45.1272" lon="5.88859">
        <ele>1826</ele>
        <time>2021-02-27T14:00:08Z</time>
      </trkpt>
      <trkpt lat="45.14031" lon="5.88921">
        <ele>1390</ele>
        <time>2021-02-27T14:17:38Z</time>
      </trkpt>
    </trkseg>
  </trk>
</gpx>